Keezletown, Virginia
Current Conditions -  °F | °C
As of 1:15 AM on Sunday 23 Nov 2014 (Local Time) from KVBW Reporting Station
Overcast Overcast  
Wind Chill: 35°   Ceiling: 10000
Heat Index: 40°   Visibility: 10mi
Dew Point: 20°   Wind: 7mph
Humidity: 44%   Direction: 160°SSE
Pressure: 30.21"   Gusts: NA
Location:  38.41°N, 78.8°W
Report Text: KVBW 230615Z AUTO 16006KT 10SM OVC100 05/M07 A3021 RMK AO2 T00451067
Loading
Personal Weather Stations






























Interactive Weather Map New forecast layout! Learn more

10-Day Weather Forecast

Advertisements
Track Severe Weather on mobile